sensor_id;sensor_type;location;lat;lon;timestamp;P1;durP1;ratioP1;P2;durP2;ratioP2
19262;SDS011;9765;52.354;20.884;2022-08-21T04:24:49;9.83;;;5.97;;
19262;SDS011;9765;52.354;20.884;2022-08-21T04:27:15;9.87;;;5.90;;
19262;SDS011;9765;52.354;20.884;2022-08-21T04:29:42;7.97;;;5.83;;
19262;SDS011;9765;52.354;20.884;2022-08-21T04:32:09;11.87;;;6.10;;
19262;SDS011;9765;52.354;20.884;2022-08-21T04:34:35;9.57;;;5.50;;
19262;SDS011;9765;52.354;20.884;2022-08-21T04:37:02;12.10;;;6.13;;
19262;SDS011;9765;52.354;20.884;2022-08-21T04:39:29;9.07;;;6.17;;
19262;SDS011;9765;52.354;20.884;2022-08-21T04:41:57;10.17;;;5.87;;
19262;SDS011;9765;52.354;20.884;2022-08-21T04:44:24;16.47;;;6.70;;
19262;SDS011;9765;52.354;20.884;2022-08-21T04:46:51;11.07;;;5.87;;
19262;SDS011;9765;52.354;20.884;2022-08-21T04:49:17;9.27;;;5.53;;
19262;SDS011;9765;52.354;20.884;2022-08-21T04:51:44;10.40;;;5.80;;
19262;SDS011;9765;52.354;20.884;2022-08-21T04:54:12;10.27;;;5.80;;
19262;SDS011;9765;52.354;20.884;2022-08-21T04:56:44;7.37;;;5.47;;
19262;SDS011;9765;52.354;20.884;2022-08-21T04:59:16;16.90;;;5.70;;
19262;SDS011;9765;52.354;20.884;2022-08-21T05:01:46;8.77;;;5.03;;
19262;SDS011;9765;52.354;20.884;2022-08-21T05:04:14;7.83;;;5.07;;
19262;SDS011;9765;52.354;20.884;2022-08-21T05:06:44;8.27;;;4.70;;
19262;SDS011;9765;52.354;20.884;2022-08-21T05:09:14;12.23;;;5.37;;
19262;SDS011;9765;52.354;20.884;2022-08-21T05:11:42;8.30;;;4.90;;
19262;SDS011;9765;52.354;20.884;2022-08-21T05:14:10;11.37;;;5.53;;
19262;SDS011;9765;52.354;20.884;2022-08-21T05:16:38;9.03;;;5.57;;
19262;SDS011;9765;52.354;20.884;2022-08-21T05:19:06;13.00;;;5.20;;
19262;SDS011;9765;52.354;20.884;2022-08-21T05:21:34;9.40;;;5.23;;
19262;SDS011;9765;52.354;20.884;2022-08-21T05:24:02;9.50;;;5.37;;
19262;SDS011;9765;52.354;20.884;2022-08-21T05:26:29;8.87;;;5.10;;
19262;SDS011;9765;52.354;20.884;2022-08-21T05:28:56;9.90;;;5.27;;
19262;SDS011;9765;52.354;20.884;2022-08-21T05:31:22;11.03;;;5.10;;
19262;SDS011;9765;52.354;20.884;2022-08-21T05:33:51;9.10;;;5.37;;
19262;SDS011;9765;52.354;20.884;2022-08-21T05:36:18;10.17;;;5.57;;
19262;SDS011;9765;52.354;20.884;2022-08-21T05:38:44;12.10;;;5.20;;
19262;SDS011;9765;52.354;20.884;2022-08-21T05:41:11;9.00;;;5.37;;
19262;SDS011;9765;52.354;20.884;2022-08-21T05:43:38;8.40;;;4.77;;
19262;SDS011;9765;52.354;20.884;2022-08-21T05:46:05;11.57;;;5.03;;
19262;SDS011;9765;52.354;20.884;2022-08-21T05:48:33;12.63;;;5.30;;
19262;SDS011;9765;52.354;20.884;2022-08-21T05:51:05;12.57;;;5.47;;
19262;SDS011;9765;52.354;20.884;2022-08-21T05:53:34;11.00;;;5.60;;
19262;SDS011;9765;52.354;20.884;2022-08-21T05:56:01;8.93;;;4.97;;
19262;SDS011;9765;52.354;20.884;2022-08-21T05:58:29;9.70;;;5.40;;
19262;SDS011;9765;52.354;20.884;2022-08-21T06:00:57;7.40;;;4.70;;
19262;SDS011;9765;52.354;20.884;2022-08-21T06:03:26;10.70;;;5.20;;
19262;SDS011;9765;52.354;20.884;2022-08-21T06:05:54;10.47;;;5.20;;
19262;SDS011;9765;52.354;20.884;2022-08-21T06:08:25;10.20;;;5.03;;
19262;SDS011;9765;52.354;20.884;2022-08-21T06:10:53;8.37;;;4.97;;
19262;SDS011;9765;52.354;20.884;2022-08-21T06:13:21;11.13;;;4.70;;
19262;SDS011;9765;52.354;20.884;2022-08-21T06:15:49;12.83;;;5.17;;
19262;SDS011;9765;52.354;20.884;2022-08-21T06:18:16;12.53;;;5.10;;
19262;SDS011;9765;52.354;20.884;2022-08-21T06:20:44;8.10;;;5.33;;
19262;SDS011;9765;52.354;20.884;2022-08-21T06:23:11;11.80;;;5.70;;
19262;SDS011;9765;52.354;20.884;2022-08-21T06:25:39;8.03;;;4.97;;
19262;SDS011;9765;52.354;20.884;2022-08-21T06:28:06;9.80;;;4.70;;
19262;SDS011;9765;52.354;20.884;2022-08-21T06:30:35;11.37;;;5.17;;
19262;SDS011;9765;52.354;20.884;2022-08-21T06:33:03;6.63;;;5.00;;
19262;SDS011;9765;52.354;20.884;2022-08-21T06:35:31;10.27;;;4.90;;
19262;SDS011;9765;52.354;20.884;2022-08-21T06:37:58;11.07;;;4.87;;
19262;SDS011;9765;52.354;20.884;2022-08-21T06:40:25;10.17;;;4.93;;
19262;SDS011;9765;52.354;20.884;2022-08-21T06:42:53;8.53;;;4.73;;
19262;SDS011;9765;52.354;20.884;2022-08-21T06:45:20;8.43;;;4.60;;
19262;SDS011;9765;52.354;20.884;2022-08-21T06:47:47;6.50;;;4.77;;
19262;SDS011;9765;52.354;20.884;2022-08-21T06:50:14;13.10;;;4.70;;
19262;SDS011;9765;52.354;20.884;2022-08-21T06:52:40;7.60;;;4.63;;
19262;SDS011;9765;52.354;20.884;2022-08-21T06:55:08;6.60;;;4.80;;
19262;SDS011;9765;52.354;20.884;2022-08-21T06:57:35;8.43;;;4.70;;
19262;SDS011;9765;52.354;20.884;2022-08-21T07:00:04;8.93;;;4.67;;
19262;SDS011;9765;52.354;20.884;2022-08-21T07:02:32;8.73;;;4.77;;
19262;SDS011;9765;52.354;20.884;2022-08-21T07:04:59;6.30;;;4.77;;
19262;SDS011;9765;52.354;20.884;2022-08-21T07:07:26;7.37;;;4.50;;
19262;SDS011;9765;52.354;20.884;2022-08-21T07:09:52;10.03;;;4.37;;
19262;SDS011;9765;52.354;20.884;2022-08-21T07:12:19;8.10;;;4.67;;
19262;SDS011;9765;52.354;20.884;2022-08-21T07:14:46;14.27;;;4.60;;
19262;SDS011;9765;52.354;20.884;2022-08-21T07:17:14;8.50;;;4.70;;
19262;SDS011;9765;52.354;20.884;2022-08-21T07:19:41;7.23;;;4.13;;
19262;SDS011;9765;52.354;20.884;2022-08-21T07:22:08;12.70;;;5.10;;
19262;SDS011;9765;52.354;20.884;2022-08-21T07:24:35;6.63;;;4.43;;
19262;SDS011;9765;52.354;20.884;2022-08-21T07:27:01;9.07;;;4.40;;
19262;SDS011;9765;52.354;20.884;2022-08-21T07:29:28;9.17;;;4.23;;
19262;SDS011;9765;52.354;20.884;2022-08-21T07:31:55;10.00;;;4.63;;
19262;SDS011;9765;52.354;20.884;2022-08-21T07:34:23;6.80;;;4.40;;
19262;SDS011;9765;52.354;20.884;2022-08-21T07:36:50;7.30;;;4.60;;
19262;SDS011;9765;52.354;20.884;2022-08-21T07:39:17;7.80;;;4.50;;
19262;SDS011;9765;52.354;20.884;2022-08-21T07:41:43;8.93;;;4.50;;
19262;SDS011;9765;52.354;20.884;2022-08-21T07:44:10;8.87;;;4.07;;
19262;SDS011;9765;52.354;20.884;2022-08-21T07:46:37;20.80;;;4.60;;
19262;SDS011;9765;52.354;20.884;2022-08-21T07:49:03;8.40;;;4.70;;
19262;SDS011;9765;52.354;20.884;2022-08-21T07:51:31;5.67;;;3.87;;
19262;SDS011;9765;52.354;20.884;2022-08-21T07:53:59;9.80;;;4.50;;
19262;SDS011;9765;52.354;20.884;2022-08-21T07:56:27;6.20;;;4.15;;
19262;SDS011;9765;52.354;20.884;2022-08-21T07:58:58;7.27;;;3.80;;
19262;SDS011;9765;52.354;20.884;2022-08-21T08:01:25;8.73;;;4.10;;
19262;SDS011;9765;52.354;20.884;2022-08-21T08:03:52;12.07;;;4.50;;
19262;SDS011;9765;52.354;20.884;2022-08-21T08:06:18;8.25;;;4.20;;
19262;SDS011;9765;52.354;20.884;2022-08-21T08:08:46;8.37;;;4.30;;
19262;SDS011;9765;52.354;20.884;2022-08-21T08:11:13;6.57;;;4.37;;
19262;SDS011;9765;52.354;20.884;2022-08-21T08:13:41;6.55;;;4.05;;
19262;SDS011;9765;52.354;20.884;2022-08-21T08:16:09;27.43;;;5.07;;
19262;SDS011;9765;52.354;20.884;2022-08-21T08:18:35;14.23;;;4.50;;
19262;SDS011;9765;52.354;20.884;2022-08-21T08:21:03;6.83;;;3.90;;
19262;SDS011;9765;52.354;20.884;2022-08-21T08:23:30;6.33;;;4.20;;
19262;SDS011;9765;52.354;20.884;2022-08-21T08:25:59;8.45;;;3.88;;
19262;SDS011;9765;52.354;20.884;2022-08-21T08:28:27;6.25;;;3.72;;
19262;SDS011;9765;52.354;20.884;2022-08-21T08:30:54;5.78;;;4.03;;
19262;SDS011;9765;52.354;20.884;2022-08-21T08:33:21;11.40;;;4.10;;
19262;SDS011;9765;52.354;20.884;2022-08-21T08:35:48;7.97;;;4.40;;
19262;SDS011;9765;52.354;20.884;2022-08-21T08:38:16;6.25;;;4.00;;
19262;SDS011;9765;52.354;20.884;2022-08-21T08:40:45;7.47;;;4.38;;
19262;SDS011;9765;52.354;20.884;2022-08-21T08:43:18;8.60;;;4.30;;
19262;SDS011;9765;52.354;20.884;2022-08-21T08:45:46;7.63;;;4.00;;
19262;SDS011;9765;52.354;20.884;2022-08-21T08:48:18;17.75;;;4.25;;
19262;SDS011;9765;52.354;20.884;2022-08-21T08:51:01;5.93;;;4.10;;
19262;SDS011;9765;52.354;20.884;2022-08-21T08:53:33;7.32;;;3.97;;
19262;SDS011;9765;52.354;20.884;2022-08-21T08:56:05;9.70;;;3.90;;
19262;SDS011;9765;52.354;20.884;2022-08-21T08:58:34;12.68;;;4.22;;
19262;SDS011;9765;52.354;20.884;2022-08-21T09:01:06;8.50;;;3.72;;
19262;SDS011;9765;52.354;20.884;2022-08-21T09:03:39;8.43;;;3.80;;
19262;SDS011;9765;52.354;20.884;2022-08-21T09:06:09;16.65;;;4.47;;
19262;SDS011;9765;52.354;20.884;2022-08-21T09:08:46;9.02;;;4.05;;
19262;SDS011;9765;52.354;20.884;2022-08-21T09:11:21;10.10;;;4.05;;
19262;SDS011;9765;52.354;20.884;2022-08-21T09:13:59;37.40;;;4.88;;
19262;SDS011;9765;52.354;20.884;2022-08-21T09:16:37;11.10;;;3.90;;
19262;SDS011;9765;52.354;20.884;2022-08-21T09:19:13;9.13;;;3.45;;
19262;SDS011;9765;52.354;20.884;2022-08-21T09:21:51;7.07;;;3.28;;
19262;SDS011;9765;52.354;20.884;2022-08-21T09:24:29;7.53;;;3.53;;
19262;SDS011;9765;52.354;20.884;2022-08-21T09:27:02;8.45;;;3.60;;
19262;SDS011;9765;52.354;20.884;2022-08-21T09:29:35;6.60;;;3.67;;
19262;SDS011;9765;52.354;20.884;2022-08-21T09:32:03;7.57;;;3.75;;
19262;SDS011;9765;52.354;20.884;2022-08-21T09:34:40;11.20;;;4.03;;
19262;SDS011;9765;52.354;20.884;2022-08-21T09:37:15;9.07;;;4.00;;
19262;SDS011;9765;52.354;20.884;2022-08-21T09:39:43;5.10;;;2.95;;
19262;SDS011;9765;52.354;20.884;2022-08-21T09:42:10;6.15;;;3.17;;
19262;SDS011;9765;52.354;20.884;2022-08-21T09:44:39;5.07;;;3.25;;
19262;SDS011;9765;52.354;20.884;2022-08-21T09:47:09;5.00;;;2.92;;
19262;SDS011;9765;52.354;20.884;2022-08-21T09:49:39;7.72;;;3.00;;
19262;SDS011;9765;52.354;20.884;2022-08-21T09:52:13;6.18;;;2.58;;
19262;SDS011;9765;52.354;20.884;2022-08-21T09:54:43;5.88;;;2.80;;
19262;SDS011;9765;52.354;20.884;2022-08-21T09:57:12;4.07;;;2.90;;
19262;SDS011;9765;52.354;20.884;2022-08-21T10:00:08;7.97;;;3.15;;
19262;SDS011;9765;52.354;20.884;2022-08-21T10:02:41;3.70;;;2.90;;
19262;SDS011;9765;52.354;20.884;2022-08-21T10:05:14;8.15;;;3.40;;
19262;SDS011;9765;52.354;20.884;2022-08-21T10:07:43;6.22;;;3.22;;
19262;SDS011;9765;52.354;20.884;2022-08-21T10:10:13;8.88;;;3.28;;
19262;SDS011;9765;52.354;20.884;2022-08-21T10:12:44;5.38;;;3.00;;
19262;SDS011;9765;52.354;20.884;2022-08-21T10:15:20;5.43;;;2.90;;
19262;SDS011;9765;52.354;20.884;2022-08-21T10:17:52;7.10;;;2.80;;
19262;SDS011;9765;52.354;20.884;2022-08-21T10:20:25;7.95;;;2.83;;
19262;SDS011;9765;52.354;20.884;2022-08-21T10:23:02;5.35;;;2.75;;
19262;SDS011;9765;52.354;20.884;2022-08-21T10:25:40;6.43;;;2.80;;
19262;SDS011;9765;52.354;20.884;2022-08-21T10:28:13;9.23;;;3.20;;
19262;SDS011;9765;52.354;20.884;2022-08-21T10:30:48;13.52;;;3.20;;
19262;SDS011;9765;52.354;20.884;2022-08-21T10:33:24;15.68;;;8.02;;
19262;SDS011;9765;52.354;20.884;2022-08-21T10:36:05;17.38;;;3.35;;
19262;SDS011;9765;52.354;20.884;2022-08-21T10:38:49;5.93;;;2.58;;
19262;SDS011;9765;52.354;20.884;2022-08-21T10:41:23;5.45;;;2.65;;
19262;SDS011;9765;52.354;20.884;2022-08-21T10:43:59;5.45;;;2.85;;
19262;SDS011;9765;52.354;20.884;2022-08-21T10:46:41;7.68;;;2.72;;
19262;SDS011;9765;52.354;20.884;2022-08-21T10:49:17;13.52;;;3.80;;
19262;SDS011;9765;52.354;20.884;2022-08-21T10:51:53;7.25;;;3.40;;
19262;SDS011;9765;52.354;20.884;2022-08-21T10:54:29;10.77;;;3.55;;
19262;SDS011;9765;52.354;20.884;2022-08-21T10:57:02;18.65;;;3.45;;
19262;SDS011;9765;52.354;20.884;2022-08-21T10:59:34;9.95;;;2.75;;
19262;SDS011;9765;52.354;20.884;2022-08-21T11:02:09;9.07;;;3.00;;
19262;SDS011;9765;52.354;20.884;2022-08-21T11:04:46;6.93;;;2.80;;
19262;SDS011;9765;52.354;20.884;2022-08-21T11:07:18;5.03;;;2.90;;
19262;SDS011;9765;52.354;20.884;2022-08-21T11:09:48;12.20;;;3.15;;
19262;SDS011;9765;52.354;20.884;2022-08-21T11:12:17;6.68;;;2.83;;
19262;SDS011;9765;52.354;20.884;2022-08-21T11:14:51;7.72;;;2.70;;
19262;SDS011;9765;52.354;20.884;2022-08-21T11:17:24;11.15;;;3.20;;
19262;SDS011;9765;52.354;20.884;2022-08-21T11:19:59;4.88;;;2.47;;
19262;SDS011;9765;52.354;20.884;2022-08-21T11:22:33;6.38;;;2.80;;
19262;SDS011;9765;52.354;20.884;2022-08-21T11:25:06;10.38;;;2.67;;
19262;SDS011;9765;52.354;20.884;2022-08-21T11:27:38;7.75;;;2.90;;
19262;SDS011;9765;52.354;20.884;2022-08-21T11:30:09;4.32;;;2.63;;
19262;SDS011;9765;52.354;20.884;2022-08-21T11:32:42;4.05;;;2.60;;
19262;SDS011;9765;52.354;20.884;2022-08-21T11:35:28;4.50;;;2.58;;
19262;SDS011;9765;52.354;20.884;2022-08-21T11:38:07;6.93;;;2.60;;
19262;SDS011;9765;52.354;20.884;2022-08-21T11:40:51;6.07;;;2.45;;
19262;SDS011;9765;52.354;20.884;2022-08-21T11:43:30;6.57;;;2.75;;
19262;SDS011;9765;52.354;20.884;2022-08-21T11:46:06;5.78;;;2.22;;
19262;SDS011;9765;52.354;20.884;2022-08-21T11:48:48;5.53;;;2.58;;
19262;SDS011;9765;52.354;20.884;2022-08-21T11:51:25;3.88;;;2.58;;
19262;SDS011;9765;52.354;20.884;2022-08-21T11:54:01;14.30;;;3.00;;
19262;SDS011;9765;52.354;20.884;2022-08-21T11:56:33;9.65;;;3.00;;
19262;SDS011;9765;52.354;20.884;2022-08-21T11:59:06;6.25;;;2.40;;
19262;SDS011;9765;52.354;20.884;2022-08-21T12:01:39;5.80;;;2.95;;
19262;SDS011;9765;52.354;20.884;2022-08-21T12:04:16;5.43;;;2.58;;
19262;SDS011;9765;52.354;20.884;2022-08-21T12:06:47;8.48;;;2.50;;
19262;SDS011;9765;52.354;20.884;2022-08-21T12:09:29;8.70;;;2.95;;
19262;SDS011;9765;52.354;20.884;2022-08-21T12:12:00;7.32;;;2.22;;
19262;SDS011;9765;52.354;20.884;2022-08-21T12:14:35;6.47;;;2.45;;
19262;SDS011;9765;52.354;20.884;2022-08-21T12:17:04;7.82;;;2.78;;
19262;SDS011;9765;52.354;20.884;2022-08-21T12:19:35;6.05;;;2.88;;
19262;SDS011;9765;52.354;20.884;2022-08-21T12:22:09;5.60;;;2.60;;
19262;SDS011;9765;52.354;20.884;2022-08-21T12:24:38;5.03;;;2.75;;
19262;SDS011;9765;52.354;20.884;2022-08-21T12:27:18;7.35;;;2.55;;
19262;SDS011;9765;52.354;20.884;2022-08-21T12:29:51;10.93;;;3.10;;
19262;SDS011;9765;52.354;20.884;2022-08-21T12:32:22;7.55;;;2.45;;
19262;SDS011;9765;52.354;20.884;2022-08-21T12:34:53;7.43;;;2.42;;
19262;SDS011;9765;52.354;20.884;2022-08-21T12:37:24;10.10;;;3.13;;
19262;SDS011;9765;52.354;20.884;2022-08-21T12:40:00;5.57;;;2.53;;
19262;SDS011;9765;52.354;20.884;2022-08-21T12:42:31;7.38;;;2.53;;
19262;SDS011;9765;52.354;20.884;2022-08-21T12:45:04;15.07;;;2.50;;
19262;SDS011;9765;52.354;20.884;2022-08-21T12:47:43;4.90;;;2.75;;
19262;SDS011;9765;52.354;20.884;2022-08-21T12:50:17;7.93;;;2.50;;
19262;SDS011;9765;52.354;20.884;2022-08-21T12:52:51;4.60;;;2.70;;
19262;SDS011;9765;52.354;20.884;2022-08-21T12:55:26;5.47;;;2.75;;
19262;SDS011;9765;52.354;20.884;2022-08-21T12:57:54;4.35;;;2.88;;
19262;SDS011;9765;52.354;20.884;2022-08-21T13:00:22;4.13;;;2.80;;
19262;SDS011;9765;52.354;20.884;2022-08-21T13:02:51;12.05;;;2.90;;
19262;SDS011;9765;52.354;20.884;2022-08-21T13:05:23;5.22;;;2.80;;
19262;SDS011;9765;52.354;20.884;2022-08-21T13:07:56;6.60;;;2.65;;
19262;SDS011;9765;52.354;20.884;2022-08-21T13:10:26;4.30;;;2.70;;
19262;SDS011;9765;52.354;20.884;2022-08-21T13:12:58;4.25;;;2.90;;
19262;SDS011;9765;52.354;20.884;2022-08-21T13:15:28;7.72;;;2.88;;
19262;SDS011;9765;52.354;20.884;2022-08-21T13:17:56;4.45;;;2.90;;
19262;SDS011;9765;52.354;20.884;2022-08-21T13:20:29;6.68;;;2.90;;
19262;SDS011;9765;52.354;20.884;2022-08-21T13:22:57;8.15;;;2.90;;
19262;SDS011;9765;52.354;20.884;2022-08-21T13:25:27;12.35;;;3.17;;
19262;SDS011;9765;52.354;20.884;2022-08-21T13:27:57;13.05;;;3.10;;
19262;SDS011;9765;52.354;20.884;2022-08-21T13:30:27;6.00;;;3.15;;
19262;SDS011;9765;52.354;20.884;2022-08-21T13:32:56;7.97;;;3.00;;
19262;SDS011;9765;52.354;20.884;2022-08-21T13:35:27;5.57;;;2.70;;
19262;SDS011;9765;52.354;20.884;2022-08-21T13:37:58;6.40;;;2.90;;
19262;SDS011;9765;52.354;20.884;2022-08-21T13:40:26;9.43;;;2.92;;
19262;SDS011;9765;52.354;20.884;2022-08-21T13:42:56;3.00;;;2.50;;
19262;SDS011;9765;52.354;20.884;2022-08-21T13:45:24;5.00;;;3.00;;
19262;SDS011;9765;52.354;20.884;2022-08-21T13:47:53;4.82;;;3.03;;
19262;SDS011;9765;52.354;20.884;2022-08-21T13:50:22;5.10;;;2.83;;
19262;SDS011;9765;52.354;20.884;2022-08-21T13:52:56;4.10;;;2.80;;
19262;SDS011;9765;52.354;20.884;2022-08-21T13:55:33;9.02;;;2.80;;
19262;SDS011;9765;52.354;20.884;2022-08-21T13:58:03;6.85;;;3.38;;
19262;SDS011;9765;52.354;20.884;2022-08-21T14:00:31;10.98;;;3.50;;
19262;SDS011;9765;52.354;20.884;2022-08-21T14:03:01;6.32;;;3.00;;
19262;SDS011;9765;52.354;20.884;2022-08-21T14:05:31;9.27;;;3.00;;
19262;SDS011;9765;52.354;20.884;2022-08-21T14:08:04;6.05;;;3.10;;
19262;SDS011;9765;52.354;20.884;2022-08-21T14:10:35;8.43;;;3.28;;
19262;SDS011;9765;52.354;20.884;2022-08-21T14:13:07;3.83;;;2.72;;
19262;SDS011;9765;52.354;20.884;2022-08-21T14:15:34;7.47;;;3.05;;
19262;SDS011;9765;52.354;20.884;2022-08-21T14:18:08;7.13;;;2.97;;
19262;SDS011;9765;52.354;20.884;2022-08-21T14:20:39;7.10;;;2.75;;
19262;SDS011;9765;52.354;20.884;2022-08-21T14:23:08;6.63;;;2.95;;
19262;SDS011;9765;52.354;20.884;2022-08-21T14:25:38;7.90;;;3.15;;
19262;SDS011;9765;52.354;20.884;2022-08-21T14:28:11;6.10;;;2.80;;
19262;SDS011;9765;52.354;20.884;2022-08-21T14:30:44;6.50;;;3.05;;
19262;SDS011;9765;52.354;20.884;2022-08-21T14:33:12;5.28;;;2.85;;
19262;SDS011;9765;52.354;20.884;2022-08-21T14:35:42;4.90;;;2.60;;
19262;SDS011;9765;52.354;20.884;2022-08-21T14:38:15;9.80;;;2.55;;
19262;SDS011;9765;52.354;20.884;2022-08-21T14:40:43;7.07;;;2.60;;
19262;SDS011;9765;52.354;20.884;2022-08-21T14:43:13;4.50;;;2.60;;
19262;SDS011;9765;52.354;20.884;2022-08-21T14:45:40;6.35;;;2.63;;
19262;SDS011;9765;52.354;20.884;2022-08-21T14:48:08;6.32;;;2.67;;
19262;SDS011;9765;52.354;20.884;2022-08-21T14:50:35;3.83;;;2.70;;
19262;SDS011;9765;52.354;20.884;2022-08-21T14:53:02;4.85;;;2.47;;
19262;SDS011;9765;52.354;20.884;2022-08-21T14:55:31;5.18;;;2.42;;
19262;SDS011;9765;52.354;20.884;2022-08-21T14:58:19;18.33;;;2.78;;
19262;SDS011;9765;52.354;20.884;2022-08-21T15:00:47;7.05;;;2.60;;
19262;SDS011;9765;52.354;20.884;2022-08-21T15:03:15;8.93;;;2.80;;
19262;SDS011;9765;52.354;20.884;2022-08-21T15:05:41;4.18;;;2.60;;
19262;SDS011;9765;52.354;20.884;2022-08-21T15:08:08;4.55;;;2.80;;
19262;SDS011;9765;52.354;20.884;2022-08-21T15:10:36;6.45;;;3.00;;
19262;SDS011;9765;52.354;20.884;2022-08-21T15:13:03;3.50;;;2.10;;
19262;SDS011;9765;52.354;20.884;2022-08-21T15:15:30;3.70;;;2.40;;
19262;SDS011;9765;52.354;20.884;2022-08-21T15:18:01;12.18;;;2.78;;
19262;SDS011;9765;52.354;20.884;2022-08-21T15:20:28;9.33;;;2.80;;
19262;SDS011;9765;52.354;20.884;2022-08-21T15:22:55;4.45;;;2.55;;
19262;SDS011;9765;52.354;20.884;2022-08-21T15:25:21;7.18;;;2.50;;
19262;SDS011;9765;52.354;20.884;2022-08-21T15:27:49;4.55;;;2.55;;
19262;SDS011;9765;52.354;20.884;2022-08-21T15:30:16;3.28;;;2.22;;
19262;SDS011;9765;52.354;20.884;2022-08-21T15:32:43;7.35;;;2.95;;
19262;SDS011;9765;52.354;20.884;2022-08-21T15:35:10;6.37;;;2.60;;
19262;SDS011;9765;52.354;20.884;2022-08-21T15:37:36;6.18;;;2.33;;
19262;SDS011;9765;52.354;20.884;2022-08-21T15:40:03;6.25;;;2.60;;
19262;SDS011;9765;52.354;20.884;2022-08-21T15:42:33;13.00;;;2.97;;
19262;SDS011;9765;52.354;20.884;2022-08-21T15:45:02;6.00;;;2.50;;
19262;SDS011;9765;52.354;20.884;2022-08-21T15:47:30;6.75;;;2.67;;
19262;SDS011;9765;52.354;20.884;2022-08-21T15:49:58;4.75;;;2.38;;
19262;SDS011;9765;52.354;20.884;2022-08-21T15:52:25;8.37;;;2.70;;
19262;SDS011;9765;52.354;20.884;2022-08-21T15:54:51;9.87;;;3.07;;
19262;SDS011;9765;52.354;20.884;2022-08-21T15:57:19;5.80;;;2.28;;
19262;SDS011;9765;52.354;20.884;2022-08-21T15:59:50;2.85;;;2.45;;
19262;SDS011;9765;52.354;20.884;2022-08-21T16:02:21;8.13;;;2.70;;
19262;SDS011;9765;52.354;20.884;2022-08-21T16:04:50;5.00;;;2.50;;
19262;SDS011;9765;52.354;20.884;2022-08-21T16:07:16;3.53;;;2.43;;
19262;SDS011;9765;52.354;20.884;2022-08-21T16:09:43;8.05;;;2.95;;
19262;SDS011;9765;52.354;20.884;2022-08-21T16:12:11;7.37;;;2.80;;
19262;SDS011;9765;52.354;20.884;2022-08-21T16:14:42;6.23;;;2.50;;
19262;SDS011;9765;52.354;20.884;2022-08-21T16:17:09;8.97;;;3.13;;
19262;SDS011;9765;52.354;20.884;2022-08-21T16:19:37;11.20;;;3.23;;
19262;SDS011;9765;52.354;20.884;2022-08-21T16:22:04;8.00;;;3.23;;
19262;SDS011;9765;52.354;20.884;2022-08-21T16:24:31;3.43;;;2.50;;
19262;SDS011;9765;52.354;20.884;2022-08-21T16:26:58;5.33;;;2.90;;
19262;SDS011;9765;52.354;20.884;2022-08-21T16:29:25;4.60;;;2.77;;
19262;SDS011;9765;52.354;20.884;2022-08-21T16:31:55;8.77;;;3.30;;
19262;SDS011;9765;52.354;20.884;2022-08-21T16:34:22;5.13;;;2.83;;
19262;SDS011;9765;52.354;20.884;2022-08-21T16:36:51;13.53;;;3.60;;
19262;SDS011;9765;52.354;20.884;2022-08-21T16:39:19;4.47;;;3.00;;
19262;SDS011;9765;52.354;20.884;2022-08-21T16:41:45;7.07;;;2.87;;
19262;SDS011;9765;52.354;20.884;2022-08-21T16:44:14;4.90;;;2.93;;
19262;SDS011;9765;52.354;20.884;2022-08-21T16:46:41;4.20;;;2.90;;
19262;SDS011;9765;52.354;20.884;2022-08-21T16:49:08;6.13;;;3.07;;
19262;SDS011;9765;52.354;20.884;2022-08-21T16:51:35;7.23;;;2.80;;
19262;SDS011;9765;52.354;20.884;2022-08-21T16:54:03;5.40;;;3.00;;
19262;SDS011;9765;52.354;20.884;2022-08-21T16:56:30;6.13;;;2.90;;
19262;SDS011;9765;52.354;20.884;2022-08-21T16:58:57;7.37;;;3.17;;
19262;SDS011;9765;52.354;20.884;2022-08-21T17:01:25;11.17;;;3.40;;
19262;SDS011;9765;52.354;20.884;2022-08-21T17:03:56;5.70;;;3.13;;
19262;SDS011;9765;52.354;20.884;2022-08-21T17:06:23;5.50;;;3.20;;
19262;SDS011;9765;52.354;20.884;2022-08-21T17:08:50;5.73;;;3.47;;
19262;SDS011;9765;52.354;20.884;2022-08-21T17:11:21;6.13;;;3.33;;
19262;SDS011;9765;52.354;20.884;2022-08-21T17:13:50;7.57;;;3.60;;
19262;SDS011;9765;52.354;20.884;2022-08-21T17:16:17;6.47;;;3.10;;
19262;SDS011;9765;52.354;20.884;2022-08-21T17:18:44;7.47;;;3.40;;
19262;SDS011;9765;52.354;20.884;2022-08-21T17:21:11;7.27;;;3.87;;
19262;SDS011;9765;52.354;20.884;2022-08-21T17:23:38;10.33;;;3.50;;
19262;SDS011;9765;52.354;20.884;2022-08-21T17:26:05;9.63;;;4.00;;
